sensor_id;sensor_type;location;lat;lon;timestamp;pressure;altitude;pressure_sealevel;temperature;humidity
81812;BME280;71243;51.848;5.768;2024-01-10T00:00:19;103265.13;;;-3.03;55.62
81812;BME280;71243;51.848;5.768;2024-01-10T00:02:44;103261.69;;;-3.07;55.67
81812;BME280;71243;51.848;5.768;2024-01-10T00:05:09;103244.47;;;-3.14;56.23
81812;BME280;71243;51.848;5.768;2024-01-10T00:07:34;103247.06;;;-3.23;56.20
81812;BME280;71243;51.848;5.768;2024-01-10T00:10:00;103251.34;;;-3.20;56.84
81812;BME280;71243;51.848;5.768;2024-01-10T00:12:25;103238.47;;;-3.19;57.26
81812;BME280;71243;51.848;5.768;2024-01-10T00:14:50;103244.47;;;-3.18;57.13
81812;BME280;71243;51.848;5.768;2024-01-10T00:17:16;103233.28;;;-3.22;58.12
81812;BME280;71243;51.848;5.768;2024-01-10T00:19:41;103232.41;;;-3.24;58.47
81812;BME280;71243;51.848;5.768;2024-01-10T00:22:06;103222.09;;;-3.27;58.21
81812;BME280;71243;51.848;5.768;2024-01-10T00:24:31;103214.34;;;-3.28;57.99
81812;BME280;71243;51.848;5.768;2024-01-10T00:26:56;103214.34;;;-3.30;57.87
81812;BME280;71243;51.848;5.768;2024-01-10T00:29:22;103220.38;;;-3.29;58.32
81812;BME280;71243;51.848;5.768;2024-01-10T00:31:47;103213.47;;;-3.30;58.02
81812;BME280;71243;51.848;5.768;2024-01-10T00:34:12;103201.44;;;-3.39;58.56
81812;BME280;71243;51.848;5.768;2024-01-10T00:36:37;103216.94;;;-3.38;58.37
81812;BME280;71243;51.848;5.768;2024-01-10T00:39:03;103217.78;;;-3.34;58.39
81812;BME280;71243;51.848;5.768;2024-01-10T00:41:29;103216.94;;;-3.41;58.85
81812;BME280;71243;51.848;5.768;2024-01-10T00:43:54;103223.81;;;-3.41;58.30
81812;BME280;71243;51.848;5.768;2024-01-10T00:46:19;103221.25;;;-3.43;58.52
81812;BME280;71243;51.848;5.768;2024-01-10T00:48:44;103223.81;;;-3.33;59.69
81812;BME280;71243;51.848;5.768;2024-01-10T00:51:10;103220.38;;;-3.34;59.27
81812;BME280;71243;51.848;5.768;2024-01-10T00:53:35;103223.81;;;-3.38;59.54
81812;BME280;71243;51.848;5.768;2024-01-10T00:56:01;103219.50;;;-3.30;59.52
81812;BME280;71243;51.848;5.768;2024-01-10T00:58:26;103216.94;;;-3.31;59.47
81812;BME280;71243;51.848;5.768;2024-01-10T01:00:51;103222.09;;;-3.28;59.65
81812;BME280;71243;51.848;5.768;2024-01-10T01:03:16;103218.66;;;-3.35;59.60
81812;BME280;71243;51.848;5.768;2024-01-10T01:05:41;103222.97;;;-3.45;59.93
81812;BME280;71243;51.848;5.768;2024-01-10T01:08:07;103214.34;;;-3.45;59.63
81812;BME280;71243;51.848;5.768;2024-01-10T01:10:33;103202.31;;;-3.48;59.80
81812;BME280;71243;51.848;5.768;2024-01-10T01:12:58;103212.63;;;-3.45;59.83
81812;BME280;71243;51.848;5.768;2024-01-10T01:15:23;103214.38;;;-3.51;60.86
81812;BME280;71243;51.848;5.768;2024-01-10T01:17:48;103210.91;;;-3.59;61.22
81812;BME280;71243;51.848;5.768;2024-01-10T01:20:14;103203.19;;;-3.56;60.92
81812;BME280;71243;51.848;5.768;2024-01-10T01:22:39;103198.03;;;-3.56;61.60
81812;BME280;71243;51.848;5.768;2024-01-10T01:25:04;103198.88;;;-3.68;61.82
81812;BME280;71243;51.848;5.768;2024-01-10T01:27:30;103202.31;;;-3.54;61.41
81812;BME280;71243;51.848;5.768;2024-01-10T01:29:55;103206.63;;;-3.57;61.08
81812;BME280;71243;51.848;5.768;2024-01-10T01:32:20;103212.66;;;-3.58;61.19
81812;BME280;71243;51.848;5.768;2024-01-10T01:34:46;103216.97;;;-3.54;61.77
81812;BME280;71243;51.848;5.768;2024-01-10T01:37:11;103215.25;;;-3.51;61.92
81812;BME280;71243;51.848;5.768;2024-01-10T01:39:36;103225.56;;;-3.51;61.71
81812;BME280;71243;51.848;5.768;2024-01-10T01:42:01;103225.53;;;-3.52;61.77
81812;BME280;71243;51.848;5.768;2024-01-10T01:44:27;103224.69;;;-3.57;62.61
81812;BME280;71243;51.848;5.768;2024-01-10T01:46:52;103220.41;;;-3.57;61.67
81812;BME280;71243;51.848;5.768;2024-01-10T01:49:17;103220.38;;;-3.54;62.21
81812;BME280;71243;51.848;5.768;2024-01-10T01:51:43;103217.84;;;-3.61;63.17
81812;BME280;71243;51.848;5.768;2024-01-10T01:54:09;103212.66;;;-3.69;62.89
81812;BME280;71243;51.848;5.768;2024-01-10T01:56:36;103206.63;;;-3.59;63.27
81812;BME280;71243;51.848;5.768;2024-01-10T01:59:03;103201.47;;;-3.53;63.14
81812;BME280;71243;51.848;5.768;2024-01-10T02:01:29;103198.00;;;-3.62;63.04
81812;BME280;71243;51.848;5.768;2024-01-10T02:03:55;103205.75;;;-3.59;63.37
81812;BME280;71243;51.848;5.768;2024-01-10T02:06:20;103193.72;;;-3.60;63.77
81812;BME280;71243;51.848;5.768;2024-01-10T02:08:45;103195.44;;;-3.64;63.56
81812;BME280;71243;51.848;5.768;2024-01-10T02:11:11;103187.69;;;-3.62;63.55
81812;BME280;71243;51.848;5.768;2024-01-10T02:13:36;103198.03;;;-3.68;63.86
81812;BME280;71243;51.848;5.768;2024-01-10T02:16:01;103198.03;;;-3.73;63.61
81812;BME280;71243;51.848;5.768;2024-01-10T02:18:27;103189.44;;;-3.70;64.04
81812;BME280;71243;51.848;5.768;2024-01-10T02:20:52;103192.00;;;-3.67;64.29
81812;BME280;71243;51.848;5.768;2024-01-10T02:23:17;103190.25;;;-3.70;63.51
81812;BME280;71243;51.848;5.768;2024-01-10T02:25:43;103180.81;;;-3.71;64.11
81812;BME280;71243;51.848;5.768;2024-01-10T02:28:09;103185.09;;;-3.71;64.58
81812;BME280;71243;51.848;5.768;2024-01-10T02:30:34;103185.13;;;-3.74;64.56
81812;BME280;71243;51.848;5.768;2024-01-10T02:32:59;103188.56;;;-3.75;64.41
81812;BME280;71243;51.848;5.768;2024-01-10T02:35:25;103184.25;;;-3.67;63.98
81812;BME280;71243;51.848;5.768;2024-01-10T02:37:50;103192.84;;;-3.70;64.46
81812;BME280;71243;51.848;5.768;2024-01-10T02:40:15;103185.97;;;-3.68;64.38
81812;BME280;71243;51.848;5.768;2024-01-10T02:42:41;103186.81;;;-3.76;65.13
81812;BME280;71243;51.848;5.768;2024-01-10T02:45:06;103184.25;;;-3.81;65.27
81812;BME280;71243;51.848;5.768;2024-01-10T02:47:32;103186.84;;;-3.82;65.19
81812;BME280;71243;51.848;5.768;2024-01-10T02:49:57;103190.28;;;-3.76;64.94
81812;BME280;71243;51.848;5.768;2024-01-10T02:52:22;103185.97;;;-3.72;64.77
81812;BME280;71243;51.848;5.768;2024-01-10T02:54:47;103192.00;;;-3.70;64.99
81812;BME280;71243;51.848;5.768;2024-01-10T02:57:13;103198.91;;;-3.74;64.97
81812;BME280;71243;51.848;5.768;2024-01-10T02:59:38;103191.13;;;-3.68;64.69
81812;BME280;71243;51.848;5.768;2024-01-10T03:02:03;103188.53;;;-3.69;64.62
81812;BME280;71243;51.848;5.768;2024-01-10T03:04:28;103188.53;;;-3.69;64.60
81812;BME280;71243;51.848;5.768;2024-01-10T03:06:54;103184.25;;;-3.76;64.80
81812;BME280;71243;51.848;5.768;2024-01-10T03:09:19;103182.53;;;-3.73;64.70
81812;BME280;71243;51.848;5.768;2024-01-10T03:11:44;103178.25;;;-3.74;64.95
81812;BME280;71243;51.848;5.768;2024-01-10T03:14:10;103165.31;;;-3.81;65.27
81812;BME280;71243;51.848;5.768;2024-01-10T03:16:36;103168.78;;;-3.81;64.95
81812;BME280;71243;51.848;5.768;2024-01-10T03:19:02;103168.75;;;-3.73;64.71
81812;BME280;71243;51.848;5.768;2024-01-10T03:21:27;103177.38;;;-3.79;65.36
81812;BME280;71243;51.848;5.768;2024-01-10T03:23:55;103167.03;;;-3.82;65.49
81812;BME280;71243;51.848;5.768;2024-01-10T03:26:20;103174.78;;;-3.77;65.55
81812;BME280;71243;51.848;5.768;2024-01-10T03:28:46;103169.63;;;-3.77;65.60
81812;BME280;71243;51.848;5.768;2024-01-10T03:31:11;103174.81;;;-3.79;65.62
81812;BME280;71243;51.848;5.768;2024-01-10T03:33:36;103176.50;;;-3.75;65.62
81812;BME280;71243;51.848;5.768;2024-01-10T03:36:01;103167.91;;;-3.74;65.86
81812;BME280;71243;51.848;5.768;2024-01-10T03:38:27;103167.91;;;-3.72;65.61
81812;BME280;71243;51.848;5.768;2024-01-10T03:40:52;103154.13;;;-3.73;65.31
81812;BME280;71243;51.848;5.768;2024-01-10T03:43:17;103162.75;;;-3.83;66.13
81812;BME280;71243;51.848;5.768;2024-01-10T03:45:42;103147.25;;;-3.84;66.05
81812;BME280;71243;51.848;5.768;2024-01-10T03:48:08;103151.53;;;-3.91;66.54
81812;BME280;71243;51.848;5.768;2024-01-10T03:50:33;103156.69;;;-3.89;66.46
81812;BME280;71243;51.848;5.768;2024-01-10T03:52:58;103150.69;;;-3.79;66.29
81812;BME280;71243;51.848;5.768;2024-01-10T03:55:24;103151.56;;;-3.88;67.02
81812;BME280;71243;51.848;5.768;2024-01-10T03:57:49;103151.53;;;-3.91;66.23
81812;BME280;71243;51.848;5.768;2024-01-10T04:00:14;103157.56;;;-3.89;66.10
81812;BME280;71243;51.848;5.768;2024-01-10T04:02:39;103150.69;;;-3.87;65.79
81812;BME280;71243;51.848;5.768;2024-01-10T04:05:08;103151.56;;;-3.86;66.17
81812;BME280;71243;51.848;5.768;2024-01-10T04:07:34;103144.66;;;-3.92;66.43
81812;BME280;71243;51.848;5.768;2024-01-10T04:09:59;103137.78;;;-3.90;65.88
81812;BME280;71243;51.848;5.768;2024-01-10T04:12:24;103148.97;;;-3.95;66.07
81812;BME280;71243;51.848;5.768;2024-01-10T04:14:49;103137.81;;;-4.02;65.94
81812;BME280;71243;51.848;5.768;2024-01-10T04:17:14;103131.75;;;-3.98;65.63
81812;BME280;71243;51.848;5.768;2024-01-10T04:19:40;103132.63;;;-4.02;65.86
81812;BME280;71243;51.848;5.768;2024-01-10T04:22:05;103125.72;;;-4.00;66.27
81812;BME280;71243;51.848;5.768;2024-01-10T04:24:30;103134.34;;;-4.10;66.24
81812;BME280;71243;51.848;5.768;2024-01-10T04:26:55;103120.59;;;-4.09;66.66
81812;BME280;71243;51.848;5.768;2024-01-10T04:29:20;103114.56;;;-4.17;66.78
81812;BME280;71243;51.848;5.768;2024-01-10T04:31:46;103110.28;;;-4.19;66.88
81812;BME280;71243;51.848;5.768;2024-01-10T04:34:11;103117.97;;;-4.21;67.16
81812;BME280;71243;51.848;5.768;2024-01-10T04:36:36;103117.13;;;-4.17;66.70
81812;BME280;71243;51.848;5.768;2024-01-10T04:39:01;103120.59;;;-4.16;66.44
81812;BME280;71243;51.848;5.768;2024-01-10T04:41:27;103115.41;;;-4.21;66.52
81812;BME280;71243;51.848;5.768;2024-01-10T04:43:52;103112.84;;;-4.13;66.21
81812;BME280;71243;51.848;5.768;2024-01-10T04:46:17;103110.28;;;-4.19;66.54
81812;BME280;71243;51.848;5.768;2024-01-10T04:48:42;103118.84;;;-4.19;66.29
81812;BME280;71243;51.848;5.768;2024-01-10T04:51:08;103111.97;;;-4.17;66.30
81812;BME280;71243;51.848;5.768;2024-01-10T04:53:33;103112.84;;;-4.27;66.84
81812;BME280;71243;51.848;5.768;2024-01-10T04:55:59;103093.91;;;-4.35;67.38
81812;BME280;71243;51.848;5.768;2024-01-10T04:58:24;103099.91;;;-4.31;67.39
81812;BME280;71243;51.848;5.768;2024-01-10T05:00:49;103105.13;;;-4.30;67.29
81812;BME280;71243;51.848;5.768;2024-01-10T05:03:15;103093.91;;;-4.27;67.48
81812;BME280;71243;51.848;5.768;2024-01-10T05:05:40;103095.66;;;-4.25;67.77
81812;BME280;71243;51.848;5.768;2024-01-10T05:08:05;103104.25;;;-4.18;67.35
81812;BME280;71243;51.848;5.768;2024-01-10T05:10:31;103111.97;;;-4.17;66.71
81812;BME280;71243;51.848;5.768;2024-01-10T05:12:56;103107.66;;;-4.21;66.87
81812;BME280;71243;51.848;5.768;2024-01-10T05:15:21;103111.13;;;-4.16;66.70
81812;BME280;71243;51.848;5.768;2024-01-10T05:17:46;103102.50;;;-4.22;66.73
81812;BME280;71243;51.848;5.768;2024-01-10T05:20:12;103105.09;;;-4.24;66.53
81812;BME280;71243;51.848;5.768;2024-01-10T05:22:37;103101.66;;;-4.21;66.33
81812;BME280;71243;51.848;5.768;2024-01-10T05:25:02;103093.91;;;-4.15;66.35
81812;BME280;71243;51.848;5.768;2024-01-10T05:27:28;103092.19;;;-4.24;66.55
81812;BME280;71243;51.848;5.768;2024-01-10T05:29:53;103093.94;;;-4.21;66.56
81812;BME280;71243;51.848;5.768;2024-01-10T05:32:18;103094.78;;;-4.25;66.42
81812;BME280;71243;51.848;5.768;2024-01-10T05:34:44;103100.78;;;-4.28;66.60
81812;BME280;71243;51.848;5.768;2024-01-10T05:37:09;103097.38;;;-4.30;67.16
81812;BME280;71243;51.848;5.768;2024-01-10T05:39:34;103108.53;;;-4.31;67.13
81812;BME280;71243;51.848;5.768;2024-01-10T05:42:00;103102.50;;;-4.36;68.23
81812;BME280;71243;51.848;5.768;2024-01-10T05:44:25;103101.66;;;-4.36;68.67
81812;BME280;71243;51.848;5.768;2024-01-10T05:46:50;103100.78;;;-4.41;69.05
81812;BME280;71243;51.848;5.768;2024-01-10T05:49:15;103102.53;;;-4.40;68.84
81812;BME280;71243;51.848;5.768;2024-01-10T05:51:40;103112.81;;;-4.31;69.18
81812;BME280;71243;51.848;5.768;2024-01-10T05:54:06;103114.56;;;-4.32;69.15
81812;BME280;71243;51.848;5.768;2024-01-10T05:56:31;103112.84;;;-4.27;68.92
81812;BME280;71243;51.848;5.768;2024-01-10T05:58:56;103097.34;;;-4.31;69.25
81812;BME280;71243;51.848;5.768;2024-01-10T06:01:21;103106.81;;;-4.38;68.64
81812;BME280;71243;51.848;5.768;2024-01-10T06:03:47;103106.78;;;-4.35;68.94
81812;BME280;71243;51.848;5.768;2024-01-10T06:06:12;103101.66;;;-4.38;69.24
81812;BME280;71243;51.848;5.768;2024-01-10T06:08:37;103093.91;;;-4.35;69.09
81812;BME280;71243;51.848;5.768;2024-01-10T06:11:05;103081.88;;;-4.45;68.64
81812;BME280;71243;51.848;5.768;2024-01-10T06:13:31;103095.63;;;-4.44;69.24
81812;BME280;71243;51.848;5.768;2024-01-10T06:15:56;103091.31;;;-4.47;69.12
81812;BME280;71243;51.848;5.768;2024-01-10T06:18:21;103097.34;;;-4.48;69.41
81812;BME280;71243;51.848;5.768;2024-01-10T06:20:46;103088.75;;;-4.47;68.89
81812;BME280;71243;51.848;5.768;2024-01-10T06:23:12;103088.75;;;-4.50;69.38
81812;BME280;71243;51.848;5.768;2024-01-10T06:25:37;103079.28;;;-4.60;70.30
81812;BME280;71243;51.848;5.768;2024-01-10T06:28:02;103089.59;;;-4.57;69.30
81812;BME280;71243;51.848;5.768;2024-01-10T06:30:28;103082.72;;;-4.55;69.27
81812;BME280;71243;51.848;5.768;2024-01-10T06:32:53;103091.31;;;-4.58;69.06
81812;BME280;71243;51.848;5.768;2024-01-10T06:35:18;103091.31;;;-4.56;69.01
81812;BME280;71243;51.848;5.768;2024-01-10T06:37:43;103092.16;;;-4.68;69.10
81812;BME280;71243;51.848;5.768;2024-01-10T06:40:09;103088.72;;;-4.64;69.18
81812;BME280;71243;51.848;5.768;2024-01-10T06:42:34;103093.00;;;-4.61;68.89
81812;BME280;71243;51.848;5.768;2024-01-10T06:45:00;103089.56;;;-4.63;69.03
81812;BME280;71243;51.848;5.768;2024-01-10T06:47:25;103096.47;;;-4.64;69.29
81812;BME280;71243;51.848;5.768;2024-01-10T06:49:50;103096.47;;;-4.61;69.67
81812;BME280;71243;51.848;5.768;2024-01-10T06:52:16;103087.00;;;-4.68;69.67
81812;BME280;71243;51.848;5.768;2024-01-10T06:54:41;103097.31;;;-4.65;69.01
81812;BME280;71243;51.848;5.768;2024-01-10T06:57:06;103097.31;;;-4.63;69.01
81812;BME280;71243;51.848;5.768;2024-01-10T06:59:31;103097.34;;;-4.57;69.01
81812;BME280;71243;51.848;5.768;2024-01-10T07:01:57;103093.00;;;-4.60;68.90
81812;BME280;71243;51.848;5.768;2024-01-10T07:04:22;103093.00;;;-4.60;69.12
81812;BME280;71243;51.848;5.768;2024-01-10T07:06:47;103087.03;;;-4.59;69.46
81812;BME280;71243;51.848;5.768;2024-01-10T07:09:13;103093.91;;;-4.65;70.18
81812;BME280;71243;51.848;5.768;2024-01-10T07:11:38;103091.31;;;-4.62;69.70
81812;BME280;71243;51.848;5.768;2024-01-10T07:14:03;103092.16;;;-4.69;70.11
81812;BME280;71243;51.848;5.768;2024-01-10T07:16:28;103097.34;;;-4.62;69.72
81812;BME280;71243;51.848;5.768;2024-01-10T07:18:53;103099.03;;;-4.59;69.25
81812;BME280;71243;51.848;5.768;2024-01-10T07:21:19;103099.03;;;-4.62;69.48
81812;BME280;71243;51.848;5.768;2024-01-10T07:23:44;103098.16;;;-4.60;69.37
81812;BME280;71243;51.848;5.768;2024-01-10T07:26:09;103102.50;;;-4.56;69.24
81812;BME280;71243;51.848;5.768;2024-01-10T07:28:34;103120.53;;;-4.57;69.32
81812;BME280;71243;51.848;5.768;2024-01-10T07:30:59;103118.81;;;-4.52;69.40
81812;BME280;71243;51.848;5.768;2024-01-10T07:33:25;103119.66;;;-4.56;69.64
81812;BME280;71243;51.848;5.768;2024-01-10T07:35:50;103124.81;;;-4.56;69.30
81812;BME280;71243;51.848;5.768;2024-01-10T07:38:15;103111.94;;;-4.62;69.13
81812;BME280;71243;51.848;5.768;2024-01-10T07:40:40;103110.22;;;-4.56;69.06
81812;BME280;71243;51.848;5.768;2024-01-10T07:43:05;103108.50;;;-4.57;69.06
81812;BME280;71243;51.848;5.768;2024-01-10T07:45:31;103110.22;;;-4.59;68.95
81812;BME280;71243;51.848;5.768;2024-01-10T07:47:56;103110.22;;;-4.62;69.71
81812;BME280;71243;51.848;5.768;2024-01-10T07:50:21;103115.34;;;-4.66;69.88
81812;BME280;71243;51.848;5.768;2024-01-10T07:52:46;103108.47;;;-4.60;69.72
81812;BME280;71243;51.848;5.768;2024-01-10T07:55:12;103108.50;;;-4.66;70.51
81812;BME280;71243;51.848;5.768;2024-01-10T07:57:38;103108.50;;;-4.63;70.01
81812;BME280;71243;51.848;5.768;2024-01-10T08:00:07;103099.06;;;-4.65;69.34
81812;BME280;71243;51.848;5.768;2024-01-10T08:02:32;103112.78;;;-4.63;70.16
81812;BME280;71243;51.848;5.768;2024-01-10T08:04:57;103111.06;;;-4.63;69.72
81812;BME280;71243;51.848;5.768;2024-01-10T08:07:23;103114.50;;;-4.61;70.07
81812;BME280;71243;51.848;5.768;2024-01-10T08:09:48;103117.09;;;-4.65;69.69
81812;BME280;71243;51.848;5.768;2024-01-10T08:12:13;103130.00;;;-4.62;69.61
81812;BME280;71243;51.848;5.768;2024-01-10T08:14:39;103133.44;;;-4.57;69.38
81812;BME280;71243;51.848;5.768;2024-01-10T08:17:04;103140.28;;;-4.58;69.66
81812;BME280;71243;51.848;5.768;2024-01-10T08:19:29;103124.00;;;-4.57;68.92
81812;BME280;71243;51.848;5.768;2024-01-10T08:21:55;103122.28;;;-4.55;69.14
81812;BME280;71243;51.848;5.768;2024-01-10T08:24:21;103128.28;;;-4.53;68.49
81812;BME280;71243;51.848;5.768;2024-01-10T08:26:47;103121.44;;;-4.47;68.31
81812;BME280;71243;51.848;5.768;2024-01-10T08:29:12;103124.00;;;-4.41;68.76
81812;BME280;71243;51.848;5.768;2024-01-10T08:31:37;103121.41;;;-4.38;68.30
81812;BME280;71243;51.848;5.768;2024-01-10T08:34:03;103113.69;;;-4.38;67.76
81812;BME280;71243;51.848;5.768;2024-01-10T08:36:28;103116.25;;;-4.38;67.67
81812;BME280;71243;51.848;5.768;2024-01-10T08:38:53;103107.69;;;-4.30;67.94
81812;BME280;71243;51.848;5.768;2024-01-10T08:41:18;103099.94;;;-4.22;67.89
81812;BME280;71243;51.848;5.768;2024-01-10T08:43:43;103101.66;;;-4.29;67.72
81812;BME280;71243;51.848;5.768;2024-01-10T08:46:09;103103.38;;;-4.13;67.37
81812;BME280;71243;51.848;5.768;2024-01-10T08:48:34;103111.13;;;-4.05;66.81
81812;BME280;71243;51.848;5.768;2024-01-10T08:50:59;103110.28;;;-3.98;66.97
81812;BME280;71243;51.848;5.768;2024-01-10T08:53:25;103121.44;;;-3.90;66.54
81812;BME280;71243;51.848;5.768;2024-01-10T08:55:50;103109.41;;;-3.91;65.95
81812;BME280;71243;51.848;5.768;2024-01-10T08:58:15;103106.81;;;-3.91;65.67
81812;BME280;71243;51.848;5.768;2024-01-10T09:00:40;103111.97;;;-3.91;66.01
81812;BME280;71243;51.848;5.768;2024-01-10T09:03:05;103106.78;;;-3.75;65.61
81812;BME280;71243;51.848;5.768;2024-01-10T09:05:31;103097.31;;;-3.71;66.18
81812;BME280;71243;51.848;5.768;2024-01-10T09:07:56;103098.16;;;-3.62;65.02
81812;BME280;71243;51.848;5.768;2024-01-10T09:10:22;103104.16;;;-3.55;64.36
81812;BME280;71243;51.848;5.768;2024-01-10T09:12:47;103102.47;;;-3.56;64.08
81812;BME280;71243;51.848;5.768;2024-01-10T09:15:13;103114.50;;;-3.58;64.92
81812;BME280;71243;51.848;5.768;2024-01-10T09:17:38;103113.63;;;-3.48;64.26
81812;BME280;71243;51.848;5.768;2024-01-10T09:20:04;103113.63;;;-3.44;63.77
81812;BME280;71243;51.848;5.768;2024-01-10T09:22:29;103105.84;;;-3.42;64.52
81812;BME280;71243;51.848;5.768;2024-01-10T09:24:54;103119.59;;;-3.28;63.91
81812;BME280;71243;51.848;5.768;2024-01-10T09:27:19;103123.00;;;-3.23;63.19
81812;BME280;71243;51.848;5.768;2024-01-10T09:29:45;103115.22;;;-3.18;62.44
81812;BME280;71243;51.848;5.768;2024-01-10T09:32:10;103115.22;;;-3.12;62.83
81812;BME280;71243;51.848;5.768;2024-01-10T09:34:35;103121.22;;;-3.04;62.71
81812;BME280;71243;51.848;5.768;2024-01-10T09:37:00;103116.03;;;-3.01;63.29
81812;BME280;71243;51.848;5.768;2024-01-10T09:39:25;103116.88;;;-2.96;62.37
81812;BME280;71243;51.848;5.768;2024-01-10T09:41:51;103116.81;;;-2.84;62.17
81812;BME280;71243;51.848;5.768;2024-01-10T09:44:17;103114.19;;;-2.80;61.71
81812;BME280;71243;51.848;5.768;2024-01-10T09:46:49;103108.09;;;-2.68;61.44
81812;BME280;71243;51.848;5.768;2024-01-10T09:49:16;103122.75;;;-2.63;60.98
81812;BME280;71243;51.848;5.768;2024-01-10T09:51:41;103122.69;;;-2.58;60.42
81812;BME280;71243;51.848;5.768;2024-01-10T09:54:07;103114.06;;;-2.54;60.09
81812;BME280;71243;51.848;5.768;2024-01-10T09:56:32;103120.00;;;-2.45;60.65
81812;BME280;71243;51.848;5.768;2024-01-10T09:59:01;103115.69;;;-2.40;59.74
81812;BME280;71243;51.848;5.768;2024-01-10T10:01:27;103123.41;;;-2.35;59.77
81812;BME280;71243;51.848;5.768;2024-01-10T10:03:53;103118.19;;;-2.29;60.07
81812;BME280;71243;51.848;5.768;2024-01-10T10:06:21;103117.19;;;-2.13;59.28
81812;BME280;71243;51.848;5.768;2024-01-10T10:08:46;103117.94;;;-2.00;58.15
81812;BME280;71243;51.848;5.768;2024-01-10T10:11:12;103107.59;;;-2.00;57.81
81812;BME280;71243;51.848;5.768;2024-01-10T10:13:37;103105.81;;;-1.95;57.39
81812;BME280;71243;51.848;5.768;2024-01-10T10:16:03;103100.47;;;-1.77;58.38
81812;BME280;71243;51.848;5.768;2024-01-10T10:18:29;103100.41;;;-1.70;56.92
81812;BME280;71243;51.848;5.768;2024-01-10T10:21:09;103104.63;;;-1.61;56.36
81812;BME280;71243;51.848;5.768;2024-01-10T10:23:36;103105.47;;;-1.59;56.35
81812;BME280;71243;51.848;5.768;2024-01-10T10:26:10;103102.88;;;-1.58;55.76
81812;BME280;71243;51.848;5.768;2024-01-10T10:28:35;103113.16;;;-1.53;55.52
81812;BME280;71243;51.848;5.768;2024-01-10T10:31:01;103113.16;;;-1.50;55.48
81812;BME280;71243;51.848;5.768;2024-01-10T10:33:27;103107.94;;;-1.47;54.72
81812;BME280;71243;51.848;5.768;2024-01-10T10:35:52;103096.75;;;-1.51;55.19
81812;BME280;71243;51.848;5.768;2024-01-10T10:38:17;103099.16;;;-1.37;54.96
81812;BME280;71243;51.848;5.768;2024-01-10T10:40:42;103104.34;;;-1.37;54.56
81812;BME280;71243;51.848;5.768;2024-01-10T10:43:12;103096.44;;;-1.27;53.75
81812;BME280;71243;51.848;5.768;2024-01-10T10:45:38;103098.13;;;-1.23;53.53
81812;BME280;71243;51.848;5.768;2024-01-10T10:48:05;103094.75;;;-1.28;53.06
81812;BME280;71243;51.848;5.768;2024-01-10T10:50:34;103096.44;;;-1.27;52.90
81812;BME280;71243;51.848;5.768;2024-01-10T10:53:02;103098.19;;;-1.26;52.62
81812;BME280;71243;51.848;5.768;2024-01-10T10:55:28;103090.31;;;-1.17;52.98
81812;BME280;71243;51.848;5.768;2024-01-10T10:57:54;103091.91;;;-1.06;52.42
81812;BME280;71243;51.848;5.768;2024-01-10T11:00:21;103097.03;;;-1.03;52.49
81812;BME280;71243;51.848;5.768;2024-01-10T11:02:46;103088.34;;;-0.99;53.09
81812;BME280;71243;51.848;5.768;2024-01-10T11:05:12;103092.56;;;-0.92;52.37
81812;BME280;71243;51.848;5.768;2024-01-10T11:07:39;103092.44;;;-0.83;51.73
81812;BME280;71243;51.848;5.768;2024-01-10T11:10:14;103092.34;;;-0.77;51.85
81812;BME280;71243;51.848;5.768;2024-01-10T11:15:48;103089.59;;;-0.65;51.46
81812;BME280;71243;51.848;5.768;2024-01-10T11:18:49;103091.22;;;-0.58;51.73
81812;BME280;71243;51.848;5.768;2024-01-10T11:21:22;103089.34;;;-0.49;50.76
81812;BME280;71243;51.848;5.768;2024-01-10T11:23:51;103086.69;;;-0.44;51.30
81812;BME280;71243;51.848;5.768;2024-01-10T11:26:17;103078.06;;;-0.46;51.48
81812;BME280;71243;51.848;5.768;2024-01-10T11:28:44;103071.81;;;-0.35;50.52
81812;BME280;71243;51.848;5.768;2024-01-10T11:31:09;103075.34;;;-0.37;50.00
81812;BME280;71243;51.848;5.768;2024-01-10T11:33:36;103074.28;;;-0.27;50.21
81812;BME280;71243;51.848;5.768;2024-01-10T11:36:13;103071.50;;;-0.15;50.68
81812;BME280;71243;51.848;5.768;2024-01-10T11:38:40;103075.72;;;-0.10;49.47
81812;BME280;71243;51.848;5.768;2024-01-10T11:41:06;103072.25;;;-0.10;49.00
81812;BME280;71243;51.848;5.768;2024-01-10T11:43:31;103066.06;;;-0.03;49.68
81812;BME280;71243;51.848;5.768;2024-01-10T11:45:56;103064.16;;;0.08;48.77
81812;BME280;71243;51.848;5.768;2024-01-10T11:48:28;103059.00;;;0.07;48.35
81812;BME280;71243;51.848;5.768;2024-01-10T11:50:54;103061.66;;;0.02;48.31
81812;BME280;71243;51.848;5.768;2024-01-10T11:53:42;103066.78;;;0.07;48.81
81812;BME280;71243;51.848;5.768;2024-01-10T11:56:11;103060.81;;;0.02;47.31
81812;BME280;71243;51.848;5.768;2024-01-10T12:01:18;103057.00;;;0.21;47.80
81812;BME280;71243;51.848;5.768;2024-01-10T12:03:44;103055.13;;;0.27;47.39
81812;BME280;71243;51.848;5.768;2024-01-10T12:06:09;103054.25;;;0.28;46.88
81812;BME280;71243;51.848;5.768;2024-01-10T12:08:34;103067.22;;;0.30;47.08
81812;BME280;71243;51.848;5.768;2024-01-10T12:11:00;103051.53;;;0.34;47.11
81812;BME280;71243;51.848;5.768;2024-01-10T12:13:25;103053.25;;;0.34;46.69
81812;BME280;71243;51.848;5.768;2024-01-10T12:15:50;103050.66;;;0.34;46.71
81812;BME280;71243;51.848;5.768;2024-01-10T12:18:15;103058.47;;;0.35;46.76
81812;BME280;71243;51.848;5.768;2024-01-10T12:20:40;103059.25;;;0.37;46.46
81812;BME280;71243;51.848;5.768;2024-01-10T12:23:06;103050.56;;;0.40;46.96
81812;BME280;71243;51.848;5.768;2024-01-10T12:25:31;103046.34;;;0.34;46.47
81812;BME280;71243;51.848;5.768;2024-01-10T12:28:00;103053.09;;;0.43;47.05
81812;BME280;71243;51.848;5.768;2024-01-10T12:30:26;103046.91;;;0.48;46.56
81812;BME280;71243;51.848;5.768;2024-01-10T12:32:51;103042.63;;;0.47;45.66
81812;BME280;71243;51.848;5.768;2024-01-10T12:35:17;103049.44;;;0.51;46.10
81812;BME280;71243;51.848;5.768;2024-01-10T12:37:53;103040.78;;;0.52;47.21
81812;BME280;71243;51.848;5.768;2024-01-10T12:40:19;103044.94;;;0.61;47.20
81812;BME280;71243;51.848;5.768;2024-01-10T12:42:44;103046.44;;;0.71;46.75
81812;BME280;71243;51.848;5.768;2024-01-10T12:45:22;103036.00;;;0.74;46.09
81812;BME280;71243;51.848;5.768;2024-01-10T12:47:48;103044.72;;;0.71;46.06